Time;durP1;ratioP1;P1;durP2;ratioP2;P2;SDS_P1;SDS_P2;PMS_P1;PMS_P2;Temp;Humidity;BMP_temperature;BMP_pressure;BME280_temperature;BME280_humidity;BME280_pressure;Samples;Min_cycle;Max_cycle;Signal;HPM_P1;HPM_P2
2022/07/19 00:01:10;;;;;;;13.57;5.18;;;;;;;24.92;47.60;101716.03;5127795;27;20039;-51
2022/07/19 00:03:38;;;;;;;13.90;4.75;;;;;;;24.87;47.52;101706.75;5124657;27;20082;-51
2022/07/19 00:06:06;;;;;;;12.63;4.82;;;;;;;24.81;47.48;101710.06;5122013;27;20044;-54
2022/07/19 00:08:33;;;;;;;11.13;4.57;;;;;;;24.78;47.94;101708.78;5136390;27;20504;-51
2022/07/19 00:11:01;;;;;;;9.77;4.80;;;;;;;24.75;47.83;101708.66;5124780;27;20149;-51
2022/07/19 00:13:29;;;;;;;9.00;4.78;;;;;;;24.69;47.92;101705.28;5126877;27;20051;-50
2022/07/19 00:15:56;;;;;;;11.15;4.95;;;;;;;24.64;48.17;101717.44;5125140;27;20033;-50
2022/07/19 00:18:24;;;;;;;10.10;5.40;;;;;;;24.59;48.44;101709.31;5117270;27;20039;-52
2022/07/19 00:20:52;;;;;;;12.88;5.88;;;;;;;24.55;48.65;101705.56;5099729;28;20390;-55
2022/07/19 00:23:19;;;;;;;12.20;6.28;;;;;;;24.54;48.36;101703.13;5107222;27;20046;-51
2022/07/19 00:25:47;;;;;;;19.50;5.95;;;;;;;24.52;48.54;101700.69;5124237;27;20046;-51
2022/07/19 00:28:15;;;;;;;12.27;5.72;;;;;;;24.52;48.24;101699.88;5098258;28;20049;-56
2022/07/19 00:30:42;;;;;;;11.70;5.50;;;;;;;24.49;48.26;101695.81;5125369;27;20034;-57
2022/07/19 00:33:10;;;;;;;11.90;5.47;;;;;;;24.48;48.34;101694.16;5130732;27;20533;-52
2022/07/19 00:35:38;;;;;;;14.43;5.68;;;;;;;24.47;48.06;101692.53;5095562;28;20040;-49
2022/07/19 00:38:12;;;;;;;10.98;5.75;;;;;;;24.43;48.15;101683.19;5126544;27;20063;-51
2022/07/19 00:40:40;;;;;;;12.25;5.40;;;;;;;24.40;48.10;101687.47;5116303;27;20100;-50
2022/07/19 00:43:09;;;;;;;11.27;5.60;;;;;;;24.39;48.19;101696.16;5106952;28;20228;-54
2022/07/19 00:45:37;;;;;;;8.90;5.35;;;;;;;24.39;48.09;101685.88;5127110;27;20402;-49
2022/07/19 00:48:05;;;;;;;13.95;6.47;;;;;;;24.40;48.03;101681.09;5120878;27;20036;-52
2022/07/19 00:50:33;;;;;;;10.85;5.72;;;;;;;24.37;48.20;101679.81;5118832;27;20389;-50
2022/07/19 00:53:04;;;;;;;9.30;5.85;;;;;;;24.35;48.19;101684.09;5134865;27;20043;-51
2022/07/19 00:55:34;;;;;;;15.05;6.57;;;;;;;24.30;48.11;101684.31;5129492;27;20059;-48
2022/07/19 00:58:03;;;;;;;13.00;6.63;;;;;;;24.26;48.22;101675.00;5123510;27;20039;-52
2022/07/19 01:00:33;;;;;;;11.95;6.88;;;;;;;24.26;48.19;101672.22;5134075;27;20043;-51
2022/07/19 01:03:01;;;;;;;13.57;6.18;;;;;;;24.27;48.41;101676.63;5117832;27;20062;-53
2022/07/19 01:05:29;;;;;;;14.60;6.75;;;;;;;24.24;47.94;101672.53;5126731;27;20039;-50
2022/07/19 01:07:57;;;;;;;11.55;6.30;;;;;;;24.18;48.09;101671.94;5131696;27;20390;-50
2022/07/19 01:10:24;;;;;;;16.50;6.32;;;;;;;24.15;48.31;101680.16;5125040;27;20478;-51
2022/07/19 01:12:52;;;;;;;13.45;5.85;;;;;;;24.13;48.02;101677.72;5113591;27;20053;-49
2022/07/19 01:15:22;;;;;;;15.27;5.93;;;;;;;24.11;48.21;101674.47;5117251;27;20043;-51
2022/07/19 01:17:50;;;;;;;14.27;5.55;;;;;;;24.10;48.03;101672.84;5131892;27;20035;-50
2022/07/19 01:20:19;;;;;;;13.13;5.78;;;;;;;24.08;47.97;101677.94;5116267;27;20050;-51
2022/07/19 01:22:49;;;;;;;17.10;6.03;;;;;;;24.04;47.96;101674.19;5109658;27;20038;-50
2022/07/19 01:25:17;;;;;;;12.88;6.00;;;;;;;24.03;48.11;101672.56;5135424;27;20040;-49
2022/07/19 01:27:50;;;;;;;11.43;5.70;;;;;;;24.01;47.95;101677.66;5133575;27;20066;-49
2022/07/19 01:30:24;;;;;;;11.18;6.00;;;;;;;23.97;47.77;101680.28;5120625;27;20102;-53
2022/07/19 01:32:53;;;;;;;13.52;6.22;;;;;;;23.95;48.19;101687.34;5134842;27;20541;-53
2022/07/19 01:35:21;;;;;;;13.40;6.35;;;;;;;23.92;48.11;101685.25;5113763;27;20062;-52
2022/07/19 01:37:50;;;;;;;12.10;5.93;;;;;;;23.87;48.40;101686.25;5098131;27;20042;-50
2022/07/19 01:40:17;;;;;;;15.32;6.35;;;;;;;23.81;48.53;101687.59;5081368;27;20043;-49
2022/07/19 01:42:46;;;;;;;12.07;5.95;;;;;;;23.78;49.05;101686.31;5103533;27;20054;-52
2022/07/19 01:45:14;;;;;;;13.02;5.93;;;;;;;23.76;49.16;101685.84;5131036;27;20039;-49
2022/07/19 01:47:42;;;;;;;9.35;5.57;;;;;;;23.77;49.17;101676.34;5120589;27;20401;-52
2022/07/19 01:50:12;;;;;;;13.05;6.05;;;;;;;23.81;48.85;101679.25;5110552;27;20078;-51
2022/07/19 01:52:39;;;;;;;10.52;5.70;;;;;;;23.80;48.87;101678.44;5099604;27;20113;-51
2022/07/19 01:55:15;;;;;;;11.27;6.25;;;;;;;23.75;48.92;101670.28;5114374;27;20492;-49
2022/07/19 01:57:43;;;;;;;14.07;6.03;;;;;;;23.70;48.88;101673.25;5095022;28;20500;-50
2022/07/19 02:00:11;;;;;;;11.35;6.13;;;;;;;23.66;49.02;101674.25;5125792;27;20057;-49
2022/07/19 02:02:39;;;;;;;16.45;6.45;;;;;;;23.61;49.25;101666.91;5104106;28;20055;-51
2022/07/19 02:05:07;;;;;;;12.30;5.78;;;;;;;23.57;49.76;101668.72;5125770;27;20035;-52
2022/07/19 02:07:38;;;;;;;13.85;6.03;;;;;;;23.56;49.68;101659.56;5128202;27;20040;-50
2022/07/19 02:10:07;;;;;;;12.98;5.30;;;;;;;23.53;49.63;101662.22;5124587;27;20039;-48
2022/07/19 02:12:35;;;;;;;11.95;5.95;;;;;;;23.47;49.65;101667.13;5130599;27;20055;-51
2022/07/19 02:15:03;;;;;;;13.55;6.13;;;;;;;23.45;49.82;101663.91;5116405;27;20046;-49
2022/07/19 02:17:31;;;;;;;12.45;6.07;;;;;;;23.43;49.82;101665.38;5107781;27;20043;-50
2022/07/19 02:19:59;;;;;;;12.88;6.10;;;;;;;23.41;49.64;101662.94;5134561;27;20047;-49
2022/07/19 02:22:26;;;;;;;12.73;5.97;;;;;;;23.41;49.88;101659.34;5133989;27;20058;-50
2022/07/19 02:24:54;;;;;;;11.77;6.05;;;;;;;23.41;49.83;101651.81;5133987;27;20031;-51
2022/07/19 02:27:22;;;;;;;11.85;6.28;;;;;;;23.41;49.86;101649.03;5130067;27;20042;-49
2022/07/19 02:29:50;;;;;;;11.85;5.93;;;;;;;23.38;49.83;101649.72;5119754;27;20058;-52
2022/07/19 02:32:17;;;;;;;10.95;5.80;;;;;;;23.34;49.93;101645.97;5129103;27;20039;-50
2022/07/19 02:34:45;;;;;;;9.57;5.78;;;;;;;23.27;49.86;101657.59;5131065;28;20074;-49
2022/07/19 02:37:13;;;;;;;12.40;6.45;;;;;;;23.21;50.02;101647.81;5113994;28;20039;-50
2022/07/19 02:39:40;;;;;;;14.35;6.32;;;;;;;23.17;50.32;101653.22;5124098;28;20044;-51
2022/07/19 02:42:08;;;;;;;11.88;5.65;;;;;;;23.15;50.58;101651.94;5128832;28;20482;-51
2022/07/19 02:44:35;;;;;;;13.15;6.47;;;;;;;23.12;50.51;101652.59;5123139;28;20558;-52
2022/07/19 02:47:03;;;;;;;11.90;5.75;;;;;;;23.09;50.62;101650.47;5130390;28;20054;-50
2022/07/19 02:49:31;;;;;;;11.52;6.03;;;;;;;23.06;50.63;101646.38;5123317;28;20490;-53
2022/07/19 02:51:58;;;;;;;11.10;6.95;;;;;;;23.05;50.67;101647.56;5127425;28;20049;-50
2022/07/19 02:54:26;;;;;;;12.57;6.47;;;;;;;23.04;50.92;101645.09;5126036;28;20044;-51
2022/07/19 02:56:54;;;;;;;12.55;6.57;;;;;;;23.02;50.97;101641.81;5127454;28;20065;-51
2022/07/19 02:59:21;;;;;;;14.00;5.97;;;;;;;23.03;51.26;101638.72;5126317;28;20051;-51
2022/07/19 03:01:49;;;;;;;12.73;6.35;;;;;;;23.04;51.08;101642.31;5125150;28;20481;-47
2022/07/19 03:04:17;;;;;;;11.60;6.43;;;;;;;23.00;51.22;101644.16;5127131;28;20055;-47
2022/07/19 03:06:44;;;;;;;18.45;7.07;;;;;;;22.93;51.26;101637.09;5124408;28;20084;-46
2022/07/19 03:09:13;;;;;;;14.48;6.47;;;;;;;22.89;51.33;101641.69;5129613;27;20036;-50
2022/07/19 03:11:41;;;;;;;11.63;6.63;;;;;;;22.85;51.53;101637.97;5126461;27;20370;-47
2022/07/19 03:14:08;;;;;;;14.32;6.32;;;;;;;22.84;51.62;101639.09;5127144;27;20043;-50
2022/07/19 03:16:36;;;;;;;14.98;6.72;;;;;;;22.81;51.74;101634.19;5125453;27;20043;-50
2022/07/19 03:19:04;;;;;;;18.65;6.68;;;;;;;22.81;51.60;101633.38;5113936;27;20113;-47
2022/07/19 03:21:33;;;;;;;11.07;6.50;;;;;;;22.80;51.64;101629.81;5130026;27;20456;-47
2022/07/19 03:24:01;;;;;;;11.50;6.68;;;;;;;22.76;51.83;101626.84;5104000;28;20031;-49
2022/07/19 03:26:29;;;;;;;11.85;7.38;;;;;;;22.73;51.79;101621.97;5100274;28;20043;-53
2022/07/19 03:28:56;;;;;;;10.93;6.25;;;;;;;22.70;51.84;101628.16;5128529;27;20386;-46
2022/07/19 03:31:24;;;;;;;13.38;6.65;;;;;;;22.68;52.04;101622.16;5112831;28;20131;-49
2022/07/19 03:33:52;;;;;;;12.60;6.53;;;;;;;22.65;52.20;101621.97;5131460;27;20048;-46
2022/07/19 03:36:19;;;;;;;16.42;6.88;;;;;;;22.58;52.51;101616.13;5137320;27;20043;-47
2022/07/19 03:38:47;;;;;;;16.05;7.28;;;;;;;22.55;52.44;101621.19;5134884;27;20043;-49
2022/07/19 03:41:15;;;;;;;14.77;6.63;;;;;;;22.52;52.38;101621.84;5124519;27;20043;-47
2022/07/19 03:43:42;;;;;;;15.00;7.15;;;;;;;22.51;52.40;101622.16;5134094;27;20038;-48
2022/07/19 03:46:10;;;;;;;14.80;6.82;;;;;;;22.47;52.60;101627.56;5109537;28;20043;-49
2022/07/19 03:48:38;;;;;;;13.70;6.75;;;;;;;22.45;52.78;101626.28;5130399;27;20157;-50
2022/07/19 03:51:05;;;;;;;12.52;6.75;;;;;;;22.40;53.11;101620.91;5101151;28;20036;-49
2022/07/19 03:53:36;;;;;;;13.13;6.68;;;;;;;22.35;53.21;101624.66;5114233;27;20055;-52
2022/07/19 03:56:04;;;;;;;16.15;6.68;;;;;;;22.33;53.31;101635.28;5137312;27;20138;-55
2022/07/19 03:58:32;;;;;;;11.52;6.93;;;;;;;22.33;53.35;101635.28;5134724;27;20066;-48
2022/07/19 04:01:00;;;;;;;17.42;7.18;;;;;;;22.36;53.06;101623.50;5121262;27;20050;-53
2022/07/19 04:03:28;;;;;;;12.35;6.30;;;;;;;22.39;53.17;101630.34;5115205;27;20052;-54
2022/07/19 04:05:56;;;;;;;16.88;6.43;;;;;;;22.45;52.83;101627.09;5131904;27;20047;-55
2022/07/19 04:08:24;;;;;;;13.35;6.93;;;;;;;22.51;52.67;101630.50;5124003;27;20041;-51
2022/07/19 04:10:51;;;;;;;23.02;8.15;;;;;;;22.52;52.50;101638.50;5131392;27;20039;-53
2022/07/19 04:13:19;;;;;;;15.00;6.72;;;;;;;22.51;52.51;101642.44;5136713;27;20049;-54
2022/07/19 04:15:47;;;;;;;16.00;7.28;;;;;;;22.48;52.64;101633.94;5135708;27;20050;-49
2022/07/19 04:18:14;;;;;;;18.55;6.78;;;;;;;22.46;52.83;101642.59;5123293;27;20424;-47
2022/07/19 04:20:42;;;;;;;12.93;6.15;;;;;;;22.45;52.87;101627.09;5129249;27;20064;-49
2022/07/19 04:23:10;;;;;;;11.68;6.72;;;;;;;22.42;52.87;101630.53;5084070;27;20126;-49
2022/07/19 04:25:37;;;;;;;17.05;6.90;;;;;;;22.43;52.88;101632.16;5101376;27;20062;-49
2022/07/19 04:28:07;;;;;;;13.25;6.75;;;;;;;22.41;53.02;101637.22;5136000;27;20058;-50
2022/07/19 04:30:35;;;;;;;11.98;6.38;;;;;;;22.42;53.16;101638.88;5129003;27;20481;-53
2022/07/19 04:33:02;;;;;;;19.55;7.18;;;;;;;22.44;53.26;101631.03;5118144;27;20053;-54
2022/07/19 04:35:30;;;;;;;16.42;7.80;;;;;;;22.43;53.31;101634.13;5117830;27;20039;-52
2022/07/19 04:37:58;;;;;;;16.83;7.05;;;;;;;22.41;53.60;101626.09;5126038;27;20046;-54
2022/07/19 04:40:25;;;;;;;14.13;7.40;;;;;;;22.41;53.45;101636.41;5133066;27;20115;-50
2022/07/19 04:42:53;;;;;;;18.23;7.82;;;;;;;22.42;53.58;101630.53;5128367;27;20035;-53
2022/07/19 04:45:20;;;;;;;16.33;7.60;;;;;;;22.42;53.63;101627.75;5136000;27;20053;-52
2022/07/19 04:47:48;;;;;;;18.85;7.78;;;;;;;22.44;53.49;101625.47;5136198;27;20043;-51
2022/07/19 04:50:16;;;;;;;14.07;5.45;;;;;;;22.51;53.53;101630.50;5134364;27;20050;-54
2022/07/19 04:52:43;;;;;;;16.88;6.93;;;;;;;22.61;53.15;101630.19;5125762;27;20059;-51
2022/07/19 04:55:11;;;;;;;16.65;7.03;;;;;;;22.68;53.08;101627.72;5128797;27;20125;-54
2022/07/19 04:57:39;;;;;;;19.80;7.90;;;;;;;22.69;52.99;101623.78;5121195;27;20027;-51
2022/07/19 05:00:09;;;;;;;14.95;7.22;;;;;;;22.70;52.96;101627.34;5133620;27;20489;-52
2022/07/19 05:02:38;;;;;;;13.55;6.93;;;;;;;22.73;52.88;101632.28;5101583;27;20384;-51
2022/07/19 05:05:06;;;;;;;19.98;8.23;;;;;;;22.75;53.01;101625.25;5129720;27;20401;-53
2022/07/19 05:07:33;;;;;;;20.02;8.38;;;;;;;22.75;53.16;101635.50;5135430;27;20047;-54
2022/07/19 05:10:01;;;;;;;15.18;7.38;;;;;;;22.75;53.06;101629.94;5129976;27;20117;-54
2022/07/19 05:12:29;;;;;;;15.80;8.00;;;;;;;22.77;52.79;101622.09;5132571;27;20067;-50
2022/07/19 05:14:58;;;;;;;16.83;7.10;;;;;;;22.81;52.90;101631.41;5135018;27;20496;-50
2022/07/19 05:17:26;;;;;;;17.10;8.20;;;;;;;22.84;53.04;101629.94;5122883;27;20047;-52
2022/07/19 05:19:53;;;;;;;18.30;8.43;;;;;;;22.82;53.21;101624.69;5133560;27;20039;-52
2022/07/19 05:22:22;;;;;;;14.30;7.70;;;;;;;22.84;53.22;101627.97;5121642;27;20046;-49
2022/07/19 05:24:51;;;;;;;16.83;8.30;;;;;;;22.88;53.08;101628.94;5134409;27;20039;-47
2022/07/19 05:27:20;;;;;;;15.70;7.80;;;;;;;22.92;52.98;101629.09;5116473;27;20039;-51
2022/07/19 05:29:47;;;;;;;14.57;7.88;;;;;;;22.96;52.99;101625.31;4394292;28;9999960;-54
2022/07/19 05:32:15;;;;;;;16.73;9.40;;;;;;;22.98;53.01;101636.13;5111485;27;20043;-54
2022/07/19 05:34:43;;;;;;;18.02;7.88;;;;;;;22.97;53.00;101634.47;5128193;27;20044;-54
2022/07/19 05:37:10;;;;;;;13.68;7.65;;;;;;;23.01;53.02;101640.22;5131256;27;20122;-54
2022/07/19 05:39:38;;;;;;;16.83;7.88;;;;;;;23.05;52.85;101635.63;5112037;27;20043;-51
2022/07/19 05:42:06;;;;;;;14.15;7.13;;;;;;;23.08;52.93;101632.97;5105193;28;20047;-51
2022/07/19 05:44:33;;;;;;;12.35;7.18;;;;;;;23.12;52.96;101630.38;5119743;27;20390;-54
2022/07/19 05:47:01;;;;;;;16.50;8.13;;;;;;;23.14;52.76;101633.63;5125620;27;20070;-52
2022/07/19 05:49:29;;;;;;;15.70;8.20;;;;;;;23.17;52.60;101636.53;5118082;27;20031;-49
2022/07/19 05:51:56;;;;;;;12.65;6.65;;;;;;;23.17;52.68;101641.28;5128931;27;20058;-53
2022/07/19 05:54:24;;;;;;;15.18;7.75;;;;;;;23.21;52.38;101638.66;5132532;27;20047;-51
2022/07/19 05:56:54;;;;;;;15.90;7.57;;;;;;;23.24;52.30;101640.78;5134456;27;20061;-52
2022/07/19 05:59:22;;;;;;;13.73;7.68;;;;;;;23.27;52.42;101638.13;5125814;27;20511;-49
2022/07/19 06:01:49;;;;;;;14.68;8.82;;;;;;;23.30;52.13;101636.63;5125861;27;20039;-50
2022/07/19 06:04:17;;;;;;;20.58;9.27;;;;;;;23.31;52.34;101627.97;5131228;27;20489;-48
2022/07/19 06:06:45;;;;;;;16.95;9.00;;;;;;;23.32;52.48;101637.13;5116988;27;20035;-49
2022/07/19 06:09:13;;;;;;;18.67;9.82;;;;;;;23.31;52.57;101636.31;5119978;27;20043;-53
2022/07/19 06:11:40;;;;;;;21.65;8.98;;;;;;;23.34;52.65;101634.84;5097721;28;20047;-52
2022/07/19 06:14:08;;;;;;;19.33;9.63;;;;;;;23.35;52.35;101636.44;5128177;27;20037;-50
2022/07/19 06:16:38;;;;;;;19.42;9.13;;;;;;;23.36;52.40;101626.97;5120374;27;20074;-49
2022/07/19 06:19:06;;;;;;;17.23;9.35;;;;;;;23.38;52.23;101631.03;5114918;27;20088;-48
2022/07/19 06:21:34;;;;;;;17.05;8.48;;;;;;;23.41;52.17;101634.31;5122538;27;20117;-50
2022/07/19 06:24:02;;;;;;;15.65;8.80;;;;;;;23.45;52.23;101629.69;5129286;27;20039;-51
2022/07/19 06:26:29;;;;;;;14.38;8.50;;;;;;;23.48;52.08;101640.97;5101935;27;20042;-53
2022/07/19 06:28:57;;;;;;;12.55;8.00;;;;;;;23.52;51.85;101641.09;5125224;27;20035;-48
2022/07/19 06:31:25;;;;;;;15.20;8.63;;;;;;;23.56;51.38;101644.84;5123711;27;20035;-53
2022/07/19 06:33:53;;;;;;;17.83;9.00;;;;;;;23.59;51.43;101647.78;5130516;27;20136;-50
2022/07/19 06:36:20;;;;;;;17.20;8.40;;;;;;;23.61;50.98;101645.47;5131870;27;20406;-46
2022/07/19 06:38:49;;;;;;;20.75;8.40;;;;;;;23.65;50.84;101644.81;5117497;28;20516;-48
2022/07/19 06:41:16;;;;;;;15.07;7.78;;;;;;;23.68;50.63;101642.16;5131559;28;20092;-47
2022/07/19 06:43:44;;;;;;;22.67;8.30;;;;;;;23.70;50.64;101644.59;5125459;28;20091;-47
2022/07/19 06:46:12;;;;;;;14.65;7.82;;;;;;;23.70;50.61;101639.03;5121243;27;20459;-48
2022/07/19 06:48:40;;;;;;;13.73;7.47;;;;;;;23.71;50.91;101641.47;5112474;27;20039;-47
2022/07/19 06:51:08;;;;;;;18.83;8.05;;;;;;;23.73;51.24;101636.41;5105671;27;20043;-50
2022/07/19 06:53:36;;;;;;;15.18;8.20;;;;;;;23.74;51.20;101634.44;5127155;27;20052;-47
2022/07/19 06:56:04;;;;;;;16.40;8.73;;;;;;;23.75;51.89;101636.91;5135034;27;20047;-47
2022/07/19 06:58:32;;;;;;;17.75;8.95;;;;;;;23.77;52.12;101636.56;5136762;27;20129;-49
2022/07/19 07:01:07;;;;;;;18.00;8.27;;;;;;;23.79;52.20;101635.06;5124633;27;20062;-48
2022/07/19 07:03:36;;;;;;;16.70;8.75;;;;;;;23.79;51.90;101643.41;5105455;27;20534;-50
2022/07/19 07:06:04;;;;;;;20.13;8.40;;;;;;;23.81;51.97;101643.91;5115473;27;20070;-51
2022/07/19 07:08:32;;;;;;;16.45;7.47;;;;;;;23.83;52.29;101631.59;5125149;27;20504;-51
2022/07/19 07:11:00;;;;;;;15.93;8.27;;;;;;;23.85;52.17;101632.09;5126382;27;20520;-50
2022/07/19 07:13:28;;;;;;;19.00;8.90;;;;;;;23.88;52.00;101635.00;5104951;27;20370;-49
2022/07/19 07:15:55;;;;;;;16.60;8.43;;;;;;;23.91;51.98;101630.72;5109073;27;20085;-50
2022/07/19 07:18:23;;;;;;;15.30;8.18;;;;;;;23.93;51.82;101633.97;5126597;27;20509;-47
2022/07/19 07:20:51;;;;;;;22.85;8.48;;;;;;;23.96;51.95;101627.75;5092346;27;20031;-46
2022/07/19 07:23:19;;;;;;;15.65;8.40;;;;;;;23.99;52.13;101629.84;5136846;27;20051;-49
2022/07/19 07:25:48;;;;;;;19.52;8.63;;;;;;;24.03;52.04;101622.47;5126890;27;20043;-49
2022/07/19 07:28:15;;;;;;;17.75;8.70;;;;;;;24.07;52.40;101625.34;5121906;27;20134;-49
2022/07/19 07:30:50;;;;;;;20.95;8.70;;;;;;;24.12;52.16;101631.53;5108850;28;20039;-51
2022/07/19 07:33:17;;;;;;;20.80;8.35;;;;;;;24.15;51.79;101630.88;5127742;27;20039;-48
2022/07/19 07:35:45;;;;;;;15.32;7.13;;;;;;;24.19;51.02;101628.19;5128351;27;20404;-49
2022/07/19 07:38:13;;;;;;;18.73;7.28;;;;;;;24.23;50.94;101627.19;5127592;27;20062;-48
2022/07/19 07:40:43;;;;;;;13.85;7.30;;;;;;;24.29;50.86;101624.16;5099740;28;20504;-51
2022/07/19 07:43:11;;;;;;;17.10;7.18;;;;;;;24.34;50.39;101616.44;5106386;27;20031;-48
2022/07/19 07:45:39;;;;;;;16.83;6.80;;;;;;;24.40;50.52;101622.59;5118743;27;20027;-50
2022/07/19 07:48:06;;;;;;;17.45;7.18;;;;;;;24.45;51.04;101614.84;5117827;27;20070;-49
2022/07/19 07:50:34;;;;;;;13.60;6.93;;;;;;;24.50;51.08;101619.41;5124801;27;20039;-52
2022/07/19 07:53:02;;;;;;;14.65;6.47;;;;;;;24.53;51.11;101606.75;5135080;27;20035;-52
2022/07/19 07:55:29;;;;;;;17.58;6.85;;;;;;;24.56;51.10;101604.13;5124976;27;20466;-54
2022/07/19 07:57:58;;;;;;;16.10;6.70;;;;;;;24.60;50.74;101607.81;5134049;27;20043;-52
2022/07/19 08:00:26;;;;;;;16.00;6.80;;;;;;;24.64;50.80;101605.97;5131738;27;20049;-55
2022/07/19 08:02:54;;;;;;;16.35;6.95;;;;;;;24.70;50.29;101600.19;5132462;27;20048;-51
2022/07/19 08:05:22;;;;;;;16.60;7.38;;;;;;;24.75;50.75;101609.16;5102545;28;20042;-49
2022/07/19 08:07:50;;;;;;;13.13;6.57;;;;;;;24.80;50.70;101605.31;5125617;27;20067;-56
2022/07/19 08:10:22;;;;;;;18.23;7.68;;;;;;;24.84;50.84;101604.25;5116998;27;20130;-52
2022/07/19 08:12:50;;;;;;;18.73;7.25;;;;;;;24.87;51.18;101605.56;5119747;27;20084;-54
2022/07/19 08:15:19;;;;;;;16.38;7.75;;;;;;;24.91;51.88;101605.69;5127294;27;20511;-50
2022/07/19 08:17:47;;;;;;;13.07;6.90;;;;;;;24.94;51.33;101603.00;5121396;27;20386;-51
2022/07/19 08:20:15;;;;;;;13.13;6.40;;;;;;;24.98;51.59;101605.91;5107159;28;20039;-50
2022/07/19 08:22:43;;;;;;;16.25;7.03;;;;;;;25.05;51.24;101604.16;5117766;27;20040;-50
2022/07/19 08:25:14;;;;;;;14.75;7.00;;;;;;;25.12;50.79;101602.78;5122564;27;20039;-51
2022/07/19 08:27:42;;;;;;;15.93;6.80;;;;;;;25.16;51.42;101612.06;5117313;27;20046;-49
2022/07/19 08:30:11;;;;;;;18.23;7.28;;;;;;;25.24;50.55;101594.44;5124344;27;20039;-51
2022/07/19 08:32:40;;;;;;;19.77;8.18;;;;;;;25.29;50.16;101600.59;5130408;27;20039;-52
2022/07/19 08:35:08;;;;;;;16.30;7.15;;;;;;;25.31;50.42;101602.25;5123282;27;20466;-50
2022/07/19 08:37:36;;;;;;;15.52;6.75;;;;;;;25.32;49.71;101599.09;5128868;27;20043;-53
2022/07/19 08:40:05;;;;;;;14.40;6.05;;;;;;;25.42;49.21;101593.06;5131065;27;20039;-54
2022/07/19 08:42:33;;;;;;;14.57;6.20;;;;;;;25.54;49.01;101596.97;5124036;27;20039;-54
2022/07/19 08:45:04;;;;;;;15.63;6.40;;;;;;;25.61;48.84;101594.38;5131274;27;20035;-55
2022/07/19 08:47:32;;;;;;;11.82;6.38;;;;;;;25.69;48.96;101590.66;5119992;27;20050;-51
2022/07/19 08:50:03;;;;;;;19.77;6.50;;;;;;;25.77;48.09;101592.50;5102795;27;20058;-56
2022/07/19 08:52:33;;;;;;;16.70;6.35;;;;;;;25.79;47.88;101579.00;5120382;27;20035;-54
2022/07/19 08:55:01;;;;;;;21.85;6.25;;;;;;;25.84;48.35;101587.13;5102495;27;20039;-55
2022/07/19 09:00:14;;;;;;;14.10;5.07;;;;;;;26.08;46.90;101591.03;5122157;27;20082;-51
2022/07/19 09:02:56;;;;;;;16.80;5.32;;;;;;;26.16;45.86;101581.69;5122276;27;20043;-55
2022/07/19 09:05:24;;;;;;;11.02;5.13;;;;;;;26.16;45.68;101583.66;5121749;27;20079;-53
2022/07/19 09:08:11;;;;;;;15.73;5.22;;;;;;;26.16;45.44;101580.88;5102800;27;20035;-49
2022/07/19 09:10:41;;;;;;;9.80;4.90;;;;;;;26.24;44.63;101579.88;5114635;27;20043;-54
2022/07/19 09:13:15;;;;;;;9.80;4.45;;;;;;;26.28;44.50;101578.00;5127245;27;20043;-52
2022/07/19 09:15:54;;;;;;;16.73;4.82;;;;;;;26.42;45.21;101572.81;5100735;27;20059;-50
2022/07/19 09:18:23;;;;;;;13.85;4.75;;;;;;;26.51;45.14;101567.06;5106183;28;20051;-51
2022/07/19 09:20:55;;;;;;;11.55;4.47;;;;;;;26.48;45.41;101574.19;5110973;27;20484;-51
2022/07/19 09:23:23;;;;;;;13.10;4.80;;;;;;;26.50;45.01;101573.81;5119234;27;20039;-54
2022/07/19 09:26:00;;;;;;;17.63;4.55;;;;;;;26.50;45.27;101557.84;5121411;27;20046;-49
2022/07/19 09:28:31;;;;;;;11.98;4.35;;;;;;;26.55;45.05;101560.44;5118925;27;20125;-49
2022/07/19 09:31:00;;;;;;;12.00;4.50;;;;;;;26.67;44.04;101555.91;5110000;27;20118;-48
2022/07/19 09:33:30;;;;;;;10.02;4.30;;;;;;;26.78;43.22;101554.19;5106500;27;20405;-50
2022/07/19 09:36:04;;;;;;;14.02;4.97;;;;;;;26.69;42.62;101559.16;5124747;27;20493;-49
2022/07/19 09:38:36;;;;;;;12.27;4.53;;;;;;;26.72;42.73;101564.84;5105768;27;20043;-50
2022/07/19 09:41:08;;;;;;;12.63;4.45;;;;;;;26.70;43.11;101561.59;5129321;27;20035;-49
2022/07/19 09:44:05;;;;;;;15.48;4.82;;;;;;;26.78;42.15;101555.00;5101819;27;20445;-49
2022/07/19 09:46:36;;;;;;;11.95;3.80;;;;;;;26.86;41.41;101552.38;5133834;27;20034;-49
2022/07/19 09:49:15;;;;;;;13.07;4.15;;;;;;;26.96;40.16;101547.06;5129292;27;20065;-50
2022/07/19 09:51:48;;;;;;;9.60;3.80;;;;;;;27.08;39.03;101553.72;5106478;27;20031;-50
2022/07/19 09:54:18;;;;;;;12.40;4.00;;;;;;;27.25;38.53;101541.34;5098861;27;20047;-50
2022/07/19 09:56:47;;;;;;;7.90;3.97;;;;;;;27.32;38.58;101544.31;5134081;27;20043;-48
2022/07/19 09:59:14;;;;;;;16.70;4.25;;;;;;;27.30;39.25;101555.03;5078940;27;20048;-50
2022/07/19 10:01:43;;;;;;;12.82;4.35;;;;;;;27.29;39.99;101547.84;5132835;27;20031;-50
2022/07/19 10:04:14;;;;;;;9.80;4.05;;;;;;;27.29;39.34;101543.06;5098381;27;20054;-50
2022/07/19 10:06:43;;;;;;;11.52;4.18;;;;;;;27.29;39.02;101543.06;5124046;27;20050;-52
2022/07/19 10:09:14;;;;;;;8.82;3.53;;;;;;;27.29;38.56;101543.06;5126108;27;20122;-52
2022/07/19 10:11:42;;;;;;;9.85;3.70;;;;;;;27.37;37.75;101544.00;5119434;27;20044;-50
2022/07/19 10:14:11;;;;;;;9.52;4.07;;;;;;;27.49;37.52;101545.88;5121129;27;20404;-53
2022/07/19 10:17:13;;;;;;;9.73;4.32;;;;;;;27.55;37.76;101544.44;5100398;28;20502;-48
2022/07/19 10:19:47;;;;;;;10.73;3.90;;;;;;;27.47;37.02;101542.63;5127834;27;20126;-48
2022/07/19 10:22:23;;;;;;;9.20;3.97;;;;;;;27.41;36.97;101545.72;5120997;27;20489;-52
2022/07/19 10:25:03;;;;;;;7.78;4.32;;;;;;;27.48;36.80;101536.69;4404303;27;9999947;-52
2022/07/19 10:27:51;;;;;;;10.25;3.97;;;;;;;27.54;36.19;101534.38;5110780;28;20035;-49
2022/07/19 10:30:24;;;;;;;7.05;3.60;;;;;;;27.78;36.90;101534.13;5121452;27;20039;-50
2022/07/19 10:32:54;;;;;;;9.43;3.88;;;;;;;27.84;37.63;101531.84;5118274;27;20046;-47
2022/07/19 10:35:27;;;;;;;9.05;3.97;;;;;;;27.90;38.11;101533.19;5105197;28;20039;-53
2022/07/19 10:38:01;;;;;;;15.00;3.90;;;;;;;27.97;36.76;101527.72;5121092;27;20054;-49
2022/07/19 10:40:41;;;;;;;8.38;3.60;;;;;;;28.20;34.74;101524.94;5102910;28;20512;-54
2022/07/19 10:43:11;;;;;;;9.82;3.58;;;;;;;28.23;33.83;101531.81;5121650;28;20134;-53
2022/07/19 10:45:55;;;;;;;10.25;3.60;;;;;;;28.36;32.92;101524.84;5114474;28;20047;-53
2022/07/19 10:48:40;;;;;;;9.43;4.07;;;;;;;28.58;33.76;101514.84;5116245;28;20048;-51
2022/07/19 10:51:33;;;;;;;14.82;4.63;;;;;;;28.63;34.27;101513.72;5111293;28;20043;-48
2022/07/19 10:54:06;;;;;;;12.88;4.45;;;;;;;28.61;35.91;101516.88;5111706;28;20504;-50
2022/07/19 10:56:53;;;;;;;13.48;4.30;;;;;;;28.62;35.39;101506.47;5118912;28;20038;-49
2022/07/19 10:59:37;;;;;;;11.05;3.88;;;;;;;28.53;34.44;101508.75;5106276;28;20047;-52
2022/07/19 11:02:06;;;;;;;9.13;4.00;;;;;;;28.52;33.60;101505.13;5094826;28;20130;-52
2022/07/19 11:04:56;;;;;;;7.85;3.70;;;;;;;28.54;33.89;101499.94;5104496;28;20077;-49
2022/07/19 11:07:24;;;;;;;9.73;4.00;;;;;;;28.68;34.30;101504.97;5127393;28;20118;-51
2022/07/19 11:09:57;;;;;;;9.10;3.88;;;;;;;28.74;35.16;101503.47;5118418;28;20042;-51
2022/07/19 11:12:26;;;;;;;12.13;4.50;;;;;;;28.72;36.10;101497.44;5107064;28;20040;-52
2022/07/19 11:14:54;;;;;;;12.48;4.00;;;;;;;28.75;36.17;101493.09;5130013;28;20035;-50
2022/07/19 11:18:11;;;;;;;12.05;4.45;;;;;;;28.75;35.98;101485.47;5113623;28;20043;-51
2022/07/19 11:20:39;;;;;;;14.15;4.65;;;;;;;28.82;36.83;101487.59;5105606;28;20051;-51
2022/07/19 11:23:06;;;;;;;9.90;4.13;;;;;;;28.92;36.05;101480.50;5097172;28;20067;-49
2022/07/19 11:25:38;;;;;;;12.07;4.82;;;;;;;28.82;35.78;101488.38;5129961;28;20039;-51
2022/07/19 11:28:06;;;;;;;13.05;4.18;;;;;;;28.82;36.81;101473.56;5127800;28;20047;-54
2022/07/19 11:30:35;;;;;;;14.68;4.82;;;;;;;28.94;36.08;101472.53;5123131;27;20400;-51